Time;durP1;ratioP1;P1;durP2;ratioP2;P2;SDS_P1;SDS_P2;PMS_P1;PMS_P2;Temp;Humidity;BMP_temperature;BMP_pressure;BME280_temperature;BME280_humidity;BME280_pressure;Samples;Min_cycle;Max_cycle;Signal;HPM_P1;HPM_P2
2022/04/19 00:00:43;;;;;;;6.88;2.50;;;;;;;6.38;49.43;99631.03;5054186;28;20060;-39
2022/04/19 00:03:10;;;;;;;7.00;2.42;;;;;;;6.35;49.83;99633.69;5050274;28;20048;-39
2022/04/19 00:05:36;;;;;;;8.50;2.28;;;;;;;6.32;50.12;99633.75;5049471;28;20045;-41
2022/04/19 00:08:03;;;;;;;6.30;2.70;;;;;;;6.34;50.02;99625.97;5052499;28;20037;-39
2022/04/19 00:10:29;;;;;;;11.23;3.13;;;;;;;6.28;50.29;99618.34;5064476;28;20062;-40
2022/04/19 00:12:59;;;;;;;4.65;2.38;;;;;;;6.38;50.29;99625.06;5044110;28;20460;-39
2022/04/19 00:15:30;;;;;;;3.95;2.42;;;;;;;6.30;50.39;99611.41;5058691;28;20062;-40
2022/04/19 00:17:56;;;;;;;7.25;2.42;;;;;;;6.44;50.20;99630.06;5052303;28;20464;-39
2022/04/19 00:20:23;;;;;;;6.10;2.70;;;;;;;6.50;50.47;99631.69;5049195;28;20890;-39
2022/04/19 00:22:51;;;;;;;6.22;2.60;;;;;;;6.58;50.32;99627.25;5047747;28;20048;-40
2022/04/19 00:25:19;;;;;;;4.07;2.27;;;;;;;6.55;50.55;99616.97;5049139;28;20037;-39
2022/04/19 00:27:45;;;;;;;6.80;4.03;;;;;;;6.71;50.25;99631.28;5048365;28;20291;-40
2022/04/19 00:30:12;;;;;;;4.90;2.53;;;;;;;6.76;50.30;99629.47;5049116;28;20118;-40
2022/04/19 00:32:38;;;;;;;10.93;2.90;;;;;;;6.82;50.32;99630.19;5048121;28;20041;-40
2022/04/19 00:35:06;;;;;;;8.02;2.72;;;;;;;6.87;50.05;99629.25;5049115;28;20047;-41
2022/04/19 00:37:35;;;;;;;6.43;2.83;;;;;;;6.89;50.55;99625.78;5048297;28;20147;-41
2022/04/19 00:40:06;;;;;;;6.10;2.92;;;;;;;6.92;50.04;99630.00;5079860;28;20559;-39
2022/04/19 00:42:33;;;;;;;5.47;2.60;;;;;;;6.97;50.12;99618.69;5048460;28;20087;-39
2022/04/19 00:45:00;;;;;;;4.93;2.72;;;;;;;7.04;50.44;99629.75;5047494;28;20044;-41
2022/04/19 00:47:26;;;;;;;10.07;2.83;;;;;;;6.97;50.38;99610.09;5048585;28;20045;-40
2022/04/19 00:49:52;;;;;;;4.45;2.92;;;;;;;7.06;50.33;99621.13;5046709;28;20044;-40
2022/04/19 00:52:19;;;;;;;8.07;3.17;;;;;;;7.07;50.60;99620.19;5046681;28;20045;-40
2022/04/19 00:54:48;;;;;;;3.88;2.55;;;;;;;7.03;50.77;99613.41;5047363;28;20041;-40
2022/04/19 00:57:14;;;;;;;9.02;2.90;;;;;;;7.06;50.80;99613.34;5047549;28;20041;-40
2022/04/19 00:59:44;;;;;;;7.80;2.95;;;;;;;7.16;50.96;99620.03;5046492;28;20045;-40
2022/04/19 01:02:11;;;;;;;5.85;3.00;;;;;;;7.10;51.34;99602.06;5056562;28;20036;-40
2022/04/19 01:04:36;;;;;;;5.78;3.05;;;;;;;7.19;51.68;99613.94;5057839;28;20508;-40
2022/04/19 01:07:04;;;;;;;5.72;3.22;;;;;;;7.21;51.54;99609.59;5061331;28;20043;-40
2022/04/19 01:09:31;;;;;;;6.78;3.50;;;;;;;7.12;51.76;99594.25;5039979;28;20056;-40
2022/04/19 01:14:43;;;;;;;7.13;3.00;;;;;;;7.18;51.88;99619.97;5050636;28;20029;-38
2022/04/19 01:17:10;;;;;;;8.27;3.28;;;;;;;7.14;51.44;99606.28;5050531;28;20052;-39
2022/04/19 01:19:39;;;;;;;5.57;3.03;;;;;;;7.15;51.59;99604.53;5049038;28;20053;-39
2022/04/19 01:22:13;;;;;;;7.43;3.65;;;;;;;7.04;51.96;99598.75;5047695;28;20048;-39
2022/04/19 01:24:43;;;;;;;5.70;3.28;;;;;;;7.08;52.00;99603.81;5047372;28;20040;-40
2022/04/19 01:27:13;;;;;;;4.20;2.78;;;;;;;7.07;52.17;99609.84;5047248;28;20546;-40
2022/04/19 01:29:40;;;;;;;5.60;3.00;;;;;;;7.07;52.19;99617.63;5061195;28;20175;-40
2022/04/19 01:32:07;;;;;;;5.38;3.20;;;;;;;7.07;52.72;99622.78;5067982;28;20079;-40
2022/04/19 01:34:33;;;;;;;5.13;2.83;;;;;;;7.04;52.35;99622.88;5066969;28;20040;-39
2022/04/19 01:37:01;;;;;;;7.10;3.28;;;;;;;7.07;52.95;99616.75;5054539;28;20073;-39
2022/04/19 01:42:13;;;;;;;7.57;3.15;;;;;;;6.96;52.91;99601.47;5080385;28;20505;-39
2022/04/19 01:44:44;;;;;;;5.25;2.90;;;;;;;7.04;53.05;99606.50;5046750;28;20618;-42
2022/04/19 01:47:10;;;;;;;6.68;3.58;;;;;;;7.06;52.63;99607.34;5046787;28;20068;-41
2022/04/19 01:49:43;;;;;;;42.75;6.47;;;;;;;7.04;52.67;99604.78;5030549;28;20041;-40
2022/04/19 01:52:09;;;;;;;13.98;3.88;;;;;;;7.02;52.85;99595.34;5048368;28;20467;-40
2022/04/19 01:54:38;;;;;;;9.35;3.33;;;;;;;7.01;52.92;99601.41;5050284;28;20045;-41
2022/04/19 01:57:04;;;;;;;7.45;3.45;;;;;;;6.96;52.81;99592.91;5054351;28;20045;-41
2022/04/19 01:59:43;;;;;;;6.90;3.53;;;;;;;6.89;52.71;99593.91;5037829;28;20047;-39
2022/04/19 02:02:13;;;;;;;10.60;4.20;;;;;;;6.81;52.50;99594.06;5065969;28;20059;-39
2022/04/19 02:04:38;;;;;;;8.73;3.90;;;;;;;6.75;52.42;99599.38;5047867;28;20528;-39
2022/04/19 02:07:05;;;;;;;8.07;4.18;;;;;;;6.66;52.73;99602.97;5045763;28;20132;-40
2022/04/19 02:09:31;;;;;;;10.00;3.92;;;;;;;6.59;52.66;99608.31;5058928;28;20152;-39
2022/04/19 02:11:59;;;;;;;9.32;4.47;;;;;;;6.50;53.12;99598.13;5066188;28;20746;-40
2022/04/19 02:14:43;;;;;;;8.30;4.53;;;;;;;6.42;52.98;99598.28;5065260;28;20041;-39
2022/04/19 02:17:11;;;;;;;14.37;5.27;;;;;;;6.36;53.43;99600.97;5056235;28;20074;-40
2022/04/19 02:19:37;;;;;;;15.63;4.68;;;;;;;6.29;53.84;99607.97;5033712;28;20069;-40
2022/04/19 02:22:09;;;;;;;10.07;4.57;;;;;;;6.24;53.47;99607.22;5054486;28;20063;-39
2022/04/19 02:24:35;;;;;;;10.68;4.97;;;;;;;6.22;53.95;99605.56;5061850;28;20044;-39
2022/04/19 02:27:03;;;;;;;12.70;5.07;;;;;;;6.20;54.28;99605.56;5051235;28;20131;-40
2022/04/19 02:29:29;;;;;;;12.88;4.57;;;;;;;6.15;53.69;99606.53;5057864;28;20047;-40
2022/04/19 02:31:55;;;;;;;8.32;4.22;;;;;;;6.11;53.56;99599.72;5053816;28;20045;-40
2022/04/19 02:34:22;;;;;;;10.65;4.80;;;;;;;6.07;53.76;99600.66;5049985;28;20538;-40
2022/04/19 02:36:48;;;;;;;11.85;4.60;;;;;;;6.04;54.14;99598.13;5050796;28;20048;-39
2022/04/19 02:39:14;;;;;;;7.88;3.90;;;;;;;5.97;54.63;99593.06;5050297;28;20540;-40
2022/04/19 02:41:40;;;;;;;7.70;3.95;;;;;;;5.88;54.54;99582.91;5051965;28;20041;-39
2022/04/19 02:44:08;;;;;;;7.82;3.50;;;;;;;5.81;54.83;99589.00;5049822;28;20484;-41
2022/04/19 02:46:38;;;;;;;7.47;3.40;;;;;;;5.94;54.70;99615.50;5050318;28;20044;-40
2022/04/19 02:49:05;;;;;;;9.80;4.00;;;;;;;5.92;55.41;99619.81;5069478;28;20040;-40
2022/04/19 02:51:35;;;;;;;12.60;3.92;;;;;;;5.91;55.08;99633.63;5045023;28;20087;-40
2022/04/19 02:54:01;;;;;;;;;;;;;;;5.93;55.70;99634.44;5051128;28;20040;-40
2022/04/19 02:56:27;;;;;;;6.75;3.28;;;;;;;5.90;55.48;99632.78;5063755;28;19917;-40
2022/04/19 02:58:53;;;;;;;8.13;3.60;;;;;;;5.97;55.38;99640.41;5068711;28;20525;-39
2022/04/19 03:01:24;;;;;;;7.97;3.22;;;;;;;5.97;55.48;99641.22;5049199;28;20067;-39
2022/04/19 03:03:51;;;;;;;6.30;3.22;;;;;;;5.99;55.65;99647.22;5050281;28;20524;-41
2022/04/19 03:06:17;;;;;;;5.80;3.17;;;;;;;5.99;55.93;99642.06;5056808;28;20067;-40
2022/04/19 03:08:43;;;;;;;8.18;2.90;;;;;;;6.03;55.81;99642.88;5056528;28;20040;-41
2022/04/19 03:11:12;;;;;;;;;;;;;;;6.07;56.34;99645.38;5068105;28;20036;-39
2022/04/19 03:13:38;;;;;;;7.00;3.05;;;;;;;6.08;56.10;99649.66;5049185;28;19965;-39
2022/04/19 03:16:05;;;;;;;9.50;2.70;;;;;;;6.10;56.40;99652.22;5050275;28;20047;-42
2022/04/19 03:18:33;;;;;;;7.63;3.25;;;;;;;6.16;56.11;99652.97;5049556;28;20033;-40
2022/04/19 03:20:59;;;;;;;6.07;3.08;;;;;;;6.21;55.86;99658.06;5053729;28;20064;-40
2022/04/19 03:28:58;;;;;;;5.15;3.13;;;;;;;6.16;55.59;99624.59;5065097;28;20036;-40
2022/04/19 03:31:25;;;;;;;7.50;3.20;;;;;;;6.33;55.48;99647.53;5048774;28;20048;-40
2022/04/19 03:33:54;;;;;;;4.03;2.22;;;;;;;6.31;55.78;99647.53;5049190;28;20044;-40
2022/04/19 03:36:21;;;;;;;12.85;2.97;;;;;;;6.38;55.76;99658.63;5048892;28;20049;-40
2022/04/19 03:38:48;;;;;;;4.00;2.55;;;;;;;6.32;56.03;99646.66;5034843;28;20037;-40
2022/04/19 03:41:15;;;;;;;4.35;2.35;;;;;;;6.48;56.04;99673.06;5048331;28;20040;-40
2022/04/19 03:43:41;;;;;;;6.85;2.55;;;;;;;6.49;56.21;99666.19;5047959;28;20443;-40
2022/04/19 03:46:10;;;;;;;5.07;2.30;;;;;;;6.50;55.79;99667.84;5049594;28;20037;-40
2022/04/19 03:48:37;;;;;;;4.03;2.28;;;;;;;6.48;56.32;99656.72;5032042;28;20427;-39
2022/04/19 03:51:03;;;;;;;9.73;2.50;;;;;;;6.66;55.70;99675.31;5059273;28;20032;-41
2022/04/19 03:53:30;;;;;;;5.35;2.35;;;;;;;6.71;55.29;99670.03;5051466;28;20118;-40
2022/04/19 03:56:00;;;;;;;4.53;2.45;;;;;;;6.75;55.77;99664.78;5060095;28;20040;-41
2022/04/19 03:58:27;;;;;;;7.40;2.22;;;;;;;6.83;55.71;99674.97;5030593;28;20265;-41
2022/04/19 04:00:54;;;;;;;5.88;2.47;;;;;;;6.85;55.89;99664.63;5047895;28;20041;-40
2022/04/19 04:03:21;;;;;;;3.90;2.42;;;;;;;6.77;55.55;99649.25;5047583;28;20049;-42
2022/04/19 04:05:47;;;;;;;4.30;2.20;;;;;;;6.72;55.08;99645.91;5047712;28;20052;-39
2022/04/19 04:08:13;;;;;;;5.85;2.10;;;;;;;6.96;55.54;99660.09;5047558;28;20040;-40
2022/04/19 04:10:46;;;;;;;8.52;2.40;;;;;;;7.01;55.31;99663.44;5047758;28;20041;-41
2022/04/19 04:13:11;;;;;;;4.20;2.53;;;;;;;7.07;55.03;99655.53;5048639;28;20504;-41
2022/04/19 04:15:37;;;;;;;6.53;2.30;;;;;;;7.14;55.09;99670.91;5047653;28;20040;-40
2022/04/19 04:18:04;;;;;;;8.45;2.50;;;;;;;7.13;54.77;99660.59;5048330;28;20132;-42
2022/04/19 04:20:32;;;;;;;11.10;2.65;;;;;;;7.23;54.77;99675.03;5031672;28;20136;-41
2022/04/19 04:22:57;;;;;;;6.47;2.20;;;;;;;7.30;55.01;99668.00;5047553;28;20123;-39
2022/04/19 04:25:23;;;;;;;9.57;2.28;;;;;;;7.33;54.96;99660.19;5046889;28;20049;-41
2022/04/19 04:27:49;;;;;;;4.22;2.08;;;;;;;7.44;54.70;99676.28;5047816;28;20070;-41
2022/04/19 04:30:15;;;;;;;4.45;2.25;;;;;;;7.52;54.27;99674.41;5081187;28;20625;-41
2022/04/19 04:32:50;;;;;;;8.52;2.53;;;;;;;7.60;54.29;99675.94;5046838;28;20127;-40
2022/04/19 04:35:16;;;;;;;12.10;2.40;;;;;;;7.66;54.39;99674.94;5047379;28;20037;-40
2022/04/19 04:37:42;;;;;;;3.15;1.90;;;;;;;7.75;54.50;99679.03;5046344;28;20049;-41
2022/04/19 04:40:09;;;;;;;11.43;3.17;;;;;;;7.85;54.00;99683.97;5047875;28;20049;-42
2022/04/19 04:42:47;;;;;;;7.00;2.60;;;;;;;7.88;54.09;99683.06;5046734;28;20196;-41
2022/04/19 04:45:13;;;;;;;6.35;2.40;;;;;;;7.93;53.72;99683.81;5049722;28;20059;-40
2022/04/19 04:50:30;;;;;;;6.50;2.13;;;;;;;8.13;53.87;99681.59;5066878;28;20080;-41
2022/04/19 04:52:57;;;;;;;5.75;2.05;;;;;;;8.05;53.57;99640.38;5053922;28;20527;-40
2022/04/19 04:55:24;;;;;;;8.82;2.38;;;;;;;8.34;53.56;99673.31;5050353;28;20044;-40
2022/04/19 04:57:51;;;;;;;7.25;2.20;;;;;;;8.47;53.61;99674.72;5063561;28;20047;-44
2022/04/19 05:00:17;;;;;;;5.32;1.95;;;;;;;8.54;53.29;99675.38;5055342;28;20359;-41
2022/04/19 05:02:55;;;;;;;5.85;1.73;;;;;;;8.61;53.28;99671.75;5047566;28;20140;-41
2022/04/19 05:05:21;;;;;;;8.18;2.60;;;;;;;8.67;53.17;99669.00;5046590;28;20574;-41
2022/04/19 05:07:51;;;;;;;3.95;1.95;;;;;;;8.73;53.18;99670.59;5045289;28;20049;-42
2022/04/19 05:10:17;;;;;;;16.40;2.40;;;;;;;8.80;53.37;99675.53;5046141;28;20044;-41
2022/04/19 05:12:43;;;;;;;7.85;2.58;;;;;;;8.90;52.89;99676.13;5035219;28;20045;-40
2022/04/19 05:15:10;;;;;;;10.13;2.28;;;;;;;9.05;52.73;99670.56;5045483;28;20064;-41
2022/04/19 05:17:38;;;;;;;5.55;1.95;;;;;;;9.26;52.52;99672.50;5054034;28;20139;-41
2022/04/19 05:20:05;;;;;;;8.93;2.42;;;;;;;9.51;51.76;99682.16;5043407;28;20141;-42
2022/04/19 05:22:35;;;;;;;6.25;2.33;;;;;;;9.83;51.25;99681.19;5037339;28;20114;-41
2022/04/19 05:25:05;;;;;;;8.98;2.22;;;;;;;10.06;50.84;99684.75;5048478;28;20052;-41
2022/04/19 05:27:31;;;;;;;15.07;3.05;;;;;;;10.22;50.38;99687.72;5046542;28;20572;-41
2022/04/19 05:29:57;;;;;;;7.38;2.40;;;;;;;10.38;49.41;99688.06;5050501;28;20040;-41
2022/04/19 05:32:27;;;;;;;9.07;2.60;;;;;;;10.51;49.37;99689.38;5047848;28;20033;-42
2022/04/19 05:34:54;;;;;;;4.55;2.35;;;;;;;10.60;49.34;99687.28;5029815;28;20036;-42
2022/04/19 05:37:20;;;;;;;7.75;2.22;;;;;;;10.70;48.76;99682.63;5047633;28;20513;-41
2022/04/19 05:39:46;;;;;;;7.68;3.25;;;;;;;10.87;48.60;99675.09;5049290;28;20037;-40
2022/04/19 05:42:12;;;;;;;12.07;4.88;;;;;;;11.04;48.60;99672.69;5046176;28;20513;-42
2022/04/19 05:44:39;;;;;;;7.40;2.65;;;;;;;11.01;47.99;99651.16;5046612;28;20056;-44
2022/04/19 05:47:07;;;;;;;19.33;5.00;;;;;;;11.26;47.59;99659.75;5046042;28;20049;-44
2022/04/19 05:49:32;;;;;;;7.22;3.08;;;;;;;11.50;47.19;99665.81;5048412;28;20576;-44
2022/04/19 05:51:58;;;;;;;13.70;2.95;;;;;;;11.63;47.30;99663.56;5048029;28;20051;-43
2022/04/19 05:54:25;;;;;;;8.40;2.00;;;;;;;11.78;46.83;99660.38;5051741;28;20044;-41
2022/04/19 05:56:56;;;;;;;6.65;2.08;;;;;;;11.89;46.65;99663.41;5050793;28;20044;-41
2022/04/19 05:59:22;;;;;;;5.25;1.95;;;;;;;11.93;46.42;99659.78;5031054;28;20527;-40
2022/04/19 06:07:30;;;;;;;4.40;2.22;;;;;;;12.02;46.02;99659.41;5051348;28;20044;-39
2022/04/19 06:09:59;;;;;;;5.32;2.08;;;;;;;11.96;46.15;99653.59;5033042;28;20200;-43
2022/04/19 06:12:25;;;;;;;13.25;2.03;;;;;;;12.03;45.54;99652.44;5057074;28;20041;-41
2022/04/19 06:14:53;;;;;;;6.78;1.90;;;;;;;12.16;45.60;99646.66;5103827;28;20123;-42
2022/04/19 06:17:23;;;;;;;5.30;1.88;;;;;;;12.37;44.83;99654.50;5068311;28;20044;-41
2022/04/19 06:19:49;;;;;;;6.60;2.05;;;;;;;12.60;44.11;99664.81;5049464;28;20773;-42
2022/04/19 06:22:15;;;;;;;17.58;2.40;;;;;;;12.78;44.03;99661.38;5049647;28;20055;-41
2022/04/19 06:24:52;;;;;;;6.47;1.92;;;;;;;12.78;43.68;99666.59;5050851;28;20069;-41
2022/04/19 06:27:18;;;;;;;12.00;3.78;;;;;;;12.74;43.88;99668.50;5051597;28;20068;-40
2022/04/19 06:29:44;;;;;;;5.70;1.75;;;;;;;12.69;43.67;99672.22;5069677;28;20044;-40
2022/04/19 06:32:12;;;;;;;4.97;1.95;;;;;;;12.67;43.79;99668.81;5050038;28;20047;-40
2022/04/19 06:34:41;;;;;;;3.22;2.10;;;;;;;12.74;43.72;99670.28;5039975;28;20041;-41
2022/04/19 06:37:12;;;;;;;10.82;2.08;;;;;;;12.86;43.72;99661.91;5066866;28;20678;-41
2022/04/19 06:39:42;;;;;;;8.73;2.10;;;;;;;12.93;43.20;99646.81;5049583;28;20053;-41
2022/04/19 06:42:08;;;;;;;13.85;2.95;;;;;;;13.29;42.48;99667.88;5064680;28;20056;-41
2022/04/19 06:45:00;;;;;;;7.85;2.65;;;;;;;13.73;41.38;99671.00;5060268;28;20056;-39
2022/04/19 06:47:30;;;;;;;6.95;2.22;;;;;;;14.13;40.57;99672.56;5048618;28;20059;-41
2022/04/19 06:49:59;;;;;;;7.68;2.13;;;;;;;14.24;40.18;99673.72;5048303;28;20059;-41
2022/04/19 06:52:26;;;;;;;9.15;2.75;;;;;;;14.03;40.38;99653.84;5031657;28;20106;-40
2022/04/19 06:54:59;;;;;;;7.03;2.80;;;;;;;14.16;40.52;99664.56;5048990;28;20051;-41
2022/04/19 06:57:26;;;;;;;16.67;5.30;;;;;;;14.22;40.01;99667.72;5081917;28;20115;-41
2022/04/19 06:59:53;;;;;;;9.98;2.83;;;;;;;14.20;39.93;99655.63;5049761;28;20508;-41
2022/04/19 07:02:19;;;;;;;5.10;1.85;;;;;;;14.32;39.63;99665.50;5041350;28;20517;-41
2022/04/19 07:05:07;;;;;;;4.93;2.07;;;;;;;14.37;39.51;99668.75;5029392;28;20068;-42
2022/04/19 07:07:34;;;;;;;9.18;2.15;;;;;;;14.25;39.81;99664.94;5029273;28;20094;-40
2022/04/19 07:10:00;;;;;;;4.70;1.92;;;;;;;14.21;39.62;99666.03;5047674;28;20037;-40
2022/04/19 07:12:26;;;;;;;6.15;1.95;;;;;;;14.25;39.86;99669.31;5031966;28;20047;-41
2022/04/19 07:15:14;;;;;;;8.18;1.92;;;;;;;14.36;39.41;99660.06;5052127;28;20508;-40
2022/04/19 07:17:44;;;;;;;7.95;2.00;;;;;;;14.34;39.41;99667.09;5055405;28;20037;-42
2022/04/19 07:28:26;;;;;;;9.82;2.15;;;;;;;14.27;39.76;99668.34;5047931;28;20420;-42
2022/04/19 07:30:53;;;;;;;3.63;2.15;;;;;;;14.25;40.00;99669.31;5048455;28;20379;-41
2022/04/19 07:33:20;;;;;;;11.75;2.58;;;;;;;14.20;40.35;99666.09;5049568;28;20429;-41
2022/04/19 07:35:47;;;;;;;7.47;3.13;;;;;;;14.17;40.62;99671.47;5048452;28;20052;-42
2022/04/19 07:38:13;;;;;;;7.00;2.75;;;;;;;14.28;40.62;99671.81;5047838;28;20063;-39
2022/04/19 07:41:09;;;;;;;6.97;2.10;;;;;;;14.32;40.15;99660.25;5059583;28;20504;-42
2022/04/19 07:43:39;;;;;;;8.10;2.00;;;;;;;14.43;40.03;99673.69;5048044;28;20167;-41
2022/04/19 07:46:05;;;;;;;6.70;1.75;;;;;;;14.49;40.16;99677.78;5046980;28;20135;-41
2022/04/19 07:48:31;;;;;;;6.30;1.95;;;;;;;14.51;40.05;99670.66;5048465;28;20719;-42
2022/04/19 07:50:58;;;;;;;6.30;1.88;;;;;;;14.51;40.26;99675.91;5047654;28;20513;-41
2022/04/19 07:53:24;;;;;;;10.07;2.45;;;;;;;14.61;40.13;99679.75;5047991;28;20049;-41
2022/04/19 07:55:55;;;;;;;8.10;1.70;;;;;;;14.69;40.00;99672.38;5047975;28;20044;-41
2022/04/19 07:58:21;;;;;;;12.15;2.65;;;;;;;14.74;39.75;99667.75;5046280;28;20086;-41
2022/04/19 08:00:46;;;;;;;7.22;2.03;;;;;;;14.99;39.66;99672.53;5047836;28;20576;-42
2022/04/19 08:03:12;;;;;;;16.80;2.20;;;;;;;15.30;39.17;99662.13;5047669;28;20064;-42
2022/04/19 08:05:39;;;;;;;4.43;1.67;;;;;;;15.52;38.61;99667.06;5031362;28;20512;-41
2022/04/19 08:08:05;;;;;;;5.13;1.75;;;;;;;15.70;38.51;99671.31;5048051;28;20041;-41
2022/04/19 08:10:31;;;;;;;3.72;1.92;;;;;;;16.00;37.78;99672.22;5048594;28;20045;-41
2022/04/19 08:13:00;;;;;;;6.95;1.98;;;;;;;16.29;37.32;99680.19;5047984;28;20143;-42
2022/04/19 08:15:25;;;;;;;7.03;2.08;;;;;;;16.61;36.77;99683.59;5047982;28;20049;-42
2022/04/19 08:17:51;;;;;;;4.50;2.28;;;;;;;17.03;36.09;99674.94;5047940;28;20519;-41
2022/04/19 08:20:19;;;;;;;7.95;2.03;;;;;;;17.35;35.55;99671.16;5047687;28;20045;-42
2022/04/19 08:22:45;;;;;;;4.30;2.92;;;;;;;17.64;35.38;99682.50;5047050;28;20036;-40
2022/04/19 08:25:17;;;;;;;9.23;4.30;;;;;;;18.37;34.36;99672.50;5047351;28;20479;-43
2022/04/19 08:27:47;;;;;;;4.93;2.58;;;;;;;19.48;32.91;99676.22;5047436;28;20091;-42
2022/04/19 08:30:15;;;;;;;4.70;2.30;;;;;;;19.53;32.59;99676.75;5030953;28;20642;-42
2022/04/19 08:32:45;;;;;;;11.68;2.55;;;;;;;19.35;33.17;99683.31;5047060;28;20119;-42
2022/04/19 08:35:13;;;;;;;4.88;2.65;;;;;;;19.39;32.86;99682.97;5030322;28;20521;-41
2022/04/19 08:37:40;;;;;;;;;;;;;;;19.81;32.07;99676.47;5031455;28;20113;-40
2022/04/19 08:40:09;;;;;;;9.30;2.78;;;;;;;20.62;31.06;99673.94;5047536;28;19920;-41
2022/04/19 08:42:38;;;;;;;6.38;2.40;;;;;;;21.72;29.70;99673.31;5055226;28;20052;-41
2022/04/19 08:45:05;;;;;;;5.32;1.88;;;;;;;22.56;28.65;99667.25;5028568;28;20037;-40
2022/04/19 08:47:32;;;;;;;5.15;1.90;;;;;;;22.97;28.04;99661.97;5027354;28;20034;-41
2022/04/19 08:50:01;;;;;;;7.45;2.40;;;;;;;22.99;28.05;99667.94;5028330;28;20059;-41
2022/04/19 08:52:29;;;;;;;3.10;1.70;;;;;;;23.21;27.71;99656.31;5034999;28;20037;-40
2022/04/19 08:57:40;;;;;;;5.18;2.10;;;;;;;23.58;27.56;99662.78;5048400;28;20064;-42
2022/04/19 09:00:07;;;;;;;9.30;2.42;;;;;;;22.46;28.94;99674.25;5046657;28;20064;-41
2022/04/19 09:02:34;;;;;;;5.38;2.22;;;;;;;21.27;30.10;99668.06;5047945;28;20048;-42
2022/04/19 09:05:23;;;;;;;6.18;2.53;;;;;;;20.30;31.43;99664.94;5048280;28;20615;-41
2022/04/19 09:07:50;;;;;;;7.07;1.95;;;;;;;19.65;32.18;99661.84;5046596;28;20040;-42
2022/04/19 09:10:28;;;;;;;6.32;3.20;;;;;;;19.09;33.07;99666.69;5046489;28;20133;-40
2022/04/19 09:13:00;;;;;;;6.20;2.63;;;;;;;18.93;33.31;99666.03;5046086;28;20081;-40
2022/04/19 09:15:39;;;;;;;5.78;2.88;;;;;;;18.80;33.59;99660.75;5047874;28;20393;-40
2022/04/19 09:18:20;;;;;;;8.23;3.05;;;;;;;18.63;33.83;99662.88;5046578;28;20040;-40
2022/04/19 09:20:52;;;;;;;8.68;3.58;;;;;;;18.72;34.03;99657.81;5047965;28;20089;-40
2022/04/19 09:23:19;;;;;;;8.93;3.08;;;;;;;18.83;33.86;99654.47;5047307;28;20064;-41
2022/04/19 09:25:45;;;;;;;8.48;2.58;;;;;;;19.12;33.51;99647.16;5047651;28;20043;-41
2022/04/19 09:28:19;;;;;;;4.50;2.10;;;;;;;19.75;32.89;99649.66;5045983;28;20077;-42
2022/04/19 09:30:48;;;;;;;9.38;2.38;;;;;;;20.10;32.34;99661.13;5029815;28;20073;-42
2022/04/19 09:33:18;;;;;;;7.72;2.83;;;;;;;20.27;31.84;99647.53;5046207;28;20036;-42
2022/04/19 09:35:57;;;;;;;10.82;2.50;;;;;;;20.33;31.68;99637.47;5030260;28;20109;-41
2022/04/19 09:38:49;;;;;;;11.40;2.67;;;;;;;20.45;31.46;99658.53;5047161;28;20159;-43
2022/04/19 09:41:35;;;;;;;7.57;2.10;;;;;;;20.50;31.50;99655.56;5047629;28;20117;-39
2022/04/19 09:44:08;;;;;;;6.97;2.10;;;;;;;20.53;31.50;99660.59;5045636;28;20045;-41
2022/04/19 09:46:36;;;;;;;5.25;2.30;;;;;;;20.49;31.61;99661.78;5046427;28;20044;-41
2022/04/19 09:49:02;;;;;;;4.72;2.47;;;;;;;20.60;31.37;99651.25;5047537;28;20555;-40
2022/04/19 09:51:33;;;;;;;7.55;2.00;;;;;;;20.82;31.05;99651.31;5030117;28;20131;-41
2022/04/19 09:53:59;;;;;;;6.20;2.47;;;;;;;21.01;30.50;99648.91;5047885;28;20052;-42
2022/04/19 09:56:33;;;;;;;4.43;2.60;;;;;;;21.83;29.30;99652.94;5063182;28;20103;-41
2022/04/19 09:59:01;;;;;;;4.78;2.40;;;;;;;23.07;27.71;99662.00;5045596;28;20049;-42
2022/04/19 10:09:42;;;;;;;11.40;4.88;;;;;;;25.32;25.22;99660.88;5046716;28;20429;-40
2022/04/19 10:12:11;;;;;;;6.43;2.45;;;;;;;25.09;25.58;99662.22;5047286;28;20059;-42
2022/04/19 10:14:37;;;;;;;6.32;2.25;;;;;;;24.78;25.40;99666.91;5047312;28;20048;-42
2022/04/19 10:17:04;;;;;;;4.22;2.38;;;;;;;24.25;25.93;99670.03;5046213;28;20060;-41
2022/04/19 10:19:31;;;;;;;6.43;2.55;;;;;;;23.72;26.49;99666.84;5029377;28;20586;-40
2022/04/19 10:21:59;;;;;;;7.60;3.10;;;;;;;23.19;27.04;99669.72;5047265;28;20580;-42
2022/04/19 10:24:28;;;;;;;9.07;2.17;;;;;;;22.74;27.62;99668.38;5046568;28;20044;-42
2022/04/19 10:26:54;;;;;;;7.50;1.73;;;;;;;22.33;28.04;99671.81;5046956;28;20036;-42
2022/04/19 10:29:20;;;;;;;7.85;2.13;;;;;;;22.09;28.43;99673.81;5048830;28;20082;-44
2022/04/19 10:32:03;;;;;;;7.63;1.98;;;;;;;21.86;28.69;99678.31;5046984;28;20044;-43
2022/04/19 10:34:35;;;;;;;3.33;1.85;;;;;;;21.89;28.90;99670.97;5046543;28;20428;-41
2022/04/19 10:37:11;;;;;;;9.85;2.90;;;;;;;22.12;28.71;99676.22;5047217;28;20128;-42
2022/04/19 10:39:48;;;;;;;4.60;1.70;;;;;;;22.63;28.21;99669.25;5048765;28;20041;-43
2022/04/19 10:42:30;;;;;;;11.50;1.90;;;;;;;22.91;28.16;99675.72;5049534;28;20067;-41
2022/04/19 10:44:56;;;;;;;2.25;1.35;;;;;;;23.31;27.65;99666.97;5050523;28;20048;-41
2022/04/19 10:47:23;;;;;;;5.38;1.65;;;;;;;23.39;27.49;99667.16;5066314;28;20142;-42
2022/04/19 10:49:56;;;;;;;3.97;1.88;;;;;;;23.51;27.38;99666.94;5049115;28;20592;-40
2022/04/19 10:52:40;;;;;;;8.77;1.65;;;;;;;24.12;26.88;99666.78;5049030;28;20527;-41
2022/04/19 10:55:08;;;;;;;5.63;1.55;;;;;;;23.97;26.75;99666.31;5043891;28;20036;-41
2022/04/19 11:00:31;;;;;;;6.22;1.58;;;;;;;23.63;27.10;99652.59;5047125;28;20055;-40
2022/04/19 11:03:02;;;;;;;6.25;1.70;;;;;;;23.65;27.11;99644.50;5050102;28;20144;-41
2022/04/19 11:05:54;;;;;;;4.93;1.25;;;;;;;23.29;27.32;99635.25;5050105;28;20102;-41
2022/04/19 11:08:30;;;;;;;5.53;1.48;;;;;;;22.96;27.86;99647.00;5048464;28;20569;-41
2022/04/19 11:10:56;;;;;;;5.88;1.63;;;;;;;22.78;28.02;99644.13;5065988;28;20083;-42
2022/04/19 11:13:23;;;;;;;5.35;1.85;;;;;;;22.63;28.43;99650.69;5050213;28;20065;-42
2022/04/19 11:16:15;;;;;;;4.65;1.67;;;;;;;22.55;28.33;99637.25;5048533;28;20689;-41
2022/04/19 11:18:41;;;;;;;3.67;1.40;;;;;;;22.49;28.59;99635.13;5048088;28;20048;-41
2022/04/19 11:21:11;;;;;;;9.25;2.42;;;;;;;22.49;28.54;99628.97;5049988;28;20037;-41
2022/04/19 11:23:43;;;;;;;8.40;3.10;;;;;;;22.60;28.69;99629.75;5049711;28;20045;-42
2022/04/19 11:26:33;;;;;;;7.05;1.98;;;;;;;23.31;27.85;99628.03;5049794;28;20090;-41
2022/04/19 11:29:09;;;;;;;5.28;2.28;;;;;;;23.54;27.52;99631.34;5049649;28;20110;-44
2022/04/19 11:31:36;;;;;;;18.35;2.03;;;;;;;24.03;27.21;99625.09;5049694;28;20065;-42
2022/04/19 11:34:15;;;;;;;9.88;2.00;;;;;;;24.95;26.07;99622.78;5049491;28;20040;-41
2022/04/19 11:36:42;;;;;;;5.82;1.48;;;;;;;25.86;24.88;99630.72;5049694;28;20033;-41
2022/04/19 11:39:08;;;;;;;6.93;1.35;;;;;;;25.70;25.14;99609.25;5049186;28;20033;-43
2022/04/19 11:46:51;;;;;;;3.97;2.00;;;;;;;24.85;25.48;99610.34;5049458;28;20056;-40
2022/04/19 11:49:20;;;;;;;6.72;1.65;;;;;;;25.42;24.76;99603.09;5047957;28;20033;-40
2022/04/19 11:51:46;;;;;;;;;;;;;;;26.33;23.91;99604.69;5065327;28;20047;-40
2022/04/19 11:54:19;;;;;;;4.15;1.60;;;;;;;26.89;23.67;99601.63;5063277;28;19916;-42
2022/04/19 11:56:45;;;;;;;5.95;2.30;;;;;;;28.14;22.33;99596.34;5048608;28;20424;-42
2022/04/19 11:59:11;;;;;;;6.05;1.85;;;;;;;28.84;21.63;99602.78;5062812;28;20048;-40
2022/04/19 12:01:48;;;;;;;2.97;1.70;;;;;;;29.23;20.77;99602.00;5047807;28;20033;-46
2022/04/19 12:04:14;;;;;;;8.40;2.10;;;;;;;29.69;20.42;99584.19;5048827;28;20086;-48
2022/04/19 12:06:46;;;;;;;12.02;2.17;;;;;;;30.41;19.59;99596.22;5049215;28;20064;-41
2022/04/19 12:09:16;;;;;;;6.15;1.80;;;;;;;30.20;20.05;99594.22;5048984;28;20037;-43
2022/04/19 12:11:42;;;;;;;3.95;1.55;;;;;;;29.43;20.36;99577.31;5049542;28;20045;-42
2022/04/19 12:14:08;;;;;;;15.40;2.10;;;;;;;28.70;20.88;99562.50;5047481;28;20052;-41
2022/04/19 12:16:36;;;;;;;5.75;1.80;;;;;;;28.72;20.98;99585.44;5047711;28;20542;-42
2022/04/19 12:19:09;;;;;;;4.78;2.42;;;;;;;29.27;20.50;99593.44;5031113;28;20040;-42
2022/04/19 12:21:45;;;;;;;4.15;2.03;;;;;;;29.96;19.58;99585.56;5047580;28;20505;-40
2022/04/19 12:24:21;;;;;;;11.35;3.72;;;;;;;30.49;19.39;99584.63;5047596;28;20041;-42
2022/04/19 12:27:06;;;;;;;8.65;4.13;;;;;;;30.81;19.38;99586.97;5049022;28;20079;-41
2022/04/19 12:29:36;;;;;;;7.55;2.20;;;;;;;31.02;18.82;99589.78;5048794;28;20087;-41
2022/04/19 12:32:06;;;;;;;10.25;2.35;;;;;;;31.13;18.83;99578.56;5048371;28;20067;-41